Latest Weather Observations for Lord Howe Island

IDN60801

Issued at 4:32 pm EDT Friday 24 February 2017 (issued every 30 minutes, with the page automatically refreshed every 10 minutes)

About weather observations | Map of weather stations | Latest weather observations for NSW | Other Formats
Station Details ID: 200839 Name: LORD HOWE ISLAND AERO Lat: -31.54 Lon: 159.08 Height: 5.0 m
Data from the previous 72 hours. | See also: Recent months at Lord Howe Island
Date/Time
EDT
Temp
°C
App
Temp
°C
Dew
Point
°C
Rel
Hum
%
Delta-T
°C
Wind Press
QNH
hPa
Press
MSL
hPa
Rain since
9am
mm
Dir  Spd
km/h
Gust
km/h
Spd
kts
Gust
kts
24/04:30pm 26.0 26.8 20.7 72 3.5 ENE 17 20 9 11 1016.7 - 0.4
24/04:00pm 26.0 26.2 20.2 70 3.8 ENE 19 22 10 12 1016.9 - 0.4
24/03:30pm 26.1 26.5 20.6 71 3.6 ENE 19 22 10 12 1017.0 - 0.4
24/03:00pm 26.0 26.9 21.5 76 3.0 ENE 19 22 10 12 1017.2 1017.2 0.4
24/02:30pm 25.1 26.7 22.1 83 2.0 ENE 17 22 9 12 1017.5 - 0.4
24/02:00pm 25.0 27.9 21.7 82 2.2 NE 9 13 5 7 1017.7 - 0.4
24/01:33pm 24.3 27.5 21.7 85 1.7 NE 7 11 4 6 1018.1 - 0.4
24/01:30pm 24.3 27.5 21.6 85 1.8 ENE 7 11 4 6 1018.1 - 0.4
24/01:14pm 23.2 24.8 21.4 90 1.2 ENE 15 20 8 11 1018.3 - 0.4
24/01:00pm 24.2 23.5 19.5 75 3.0 ENE 22 39 12 21 1018.4 - 0.0
24/12:53pm 25.2 23.9 20.6 75 3.0 ENE 28 39 15 21 1018.4 - 0.0
24/12:30pm 26.1 27.0 20.8 72 3.5 E 17 20 9 11 1018.4 - 0.0
24/12:00pm 26.1 26.7 20.3 70 3.8 E 17 24 9 13 1018.5 1018.5 0.0
24/11:30am 26.2 27.2 21.0 73 3.4 E 17 22 9 12 1018.8 - 0.0
24/11:00am 26.0 26.4 20.7 72 3.5 E 19 24 10 13 1019.0 - 0.0
24/10:30am 25.8 26.2 20.9 74 3.2 E 20 26 11 14 1019.1 - 0.0
24/10:00am 25.9 26.2 20.5 72 3.5 E 19 24 10 13 1019.0 - 0.0
24/09:30am 25.6 25.8 20.5 73 3.3 E 20 26 11 14 1018.9 - 0.0
24/09:00am 25.0 25.1 20.4 75 3.0 E 20 28 11 15 1018.7 1018.7 0.0
24/08:30am 24.6 24.2 20.1 76 2.9 E 22 32 12 17 1018.7 - 0.0
24/08:00am 24.5 24.4 19.5 73 3.2 E 19 30 10 16 1018.5 - 0.0
24/07:30am 24.0 24.1 20.0 78 2.6 E 19 32 10 17 1018.4 - 0.0
24/07:00am 23.8 23.6 19.8 78 2.6 E 20 30 11 16 1018.3 - 0.0
24/06:30am 23.2 23.3 19.9 82 2.1 E 19 35 10 19 1018.1 - 0.0
24/06:00am 23.1 23.4 19.7 81 2.2 E 17 28 9 15 1017.8 1017.8 0.0
24/05:30am 22.9 22.7 19.4 80 2.2 E 19 28 10 15 1017.6 - 0.0
24/05:00am 22.9 22.6 19.6 81 2.1 E 20 28 11 15 1017.5 - 0.0
24/04:30am 22.5 23.9 19.5 83 1.9 ESE 11 22 6 12 1017.5 - 0.0
24/04:00am 22.8 22.1 19.5 81 2.1 E 22 30 12 16 1017.5 - 0.0
24/03:30am 22.8 23.0 19.3 80 2.2 E 17 26 9 14 1017.6 - 0.0
24/03:00am 22.8 22.5 19.2 80 2.3 E 19 28 10 15 1017.7 1017.7 0.0
24/02:30am 22.9 22.7 19.4 80 2.2 E 19 32 10 17 1017.9 - 0.0
24/02:00am 22.8 22.5 19.2 80 2.3 E 19 35 10 19 1018.1 - 0.0
24/01:30am 22.8 22.9 19.2 80 2.3 E 17 32 9 17 1018.4 - 0.0
24/01:00am 22.8 22.4 19.0 79 2.4 E 19 28 10 15 1018.6 - 0.0
24/12:30am 22.8 22.8 19.0 79 2.4 E 17 26 9 14 1018.9 - 0.0
24/12:00am 22.8 23.1 18.8 78 2.5 ESE 15 30 8 16 1019.2 1019.2 0.0
 
Date/Time
EDT
Temp
°C
App
Temp
°C
Dew
Point
°C
Rel
Hum
%
Delta-T
°C
Wind Press
QNH
hPa
Press
MSL
hPa
Rain since
9am
mm
Dir  Spd
km/h
Gust
km/h
Spd
kts
Gust
kts
23/11:40pm 22.6 22.9 18.8 79 2.4 ESE 15 22 8 12 1019.4 - 0.0
23/11:30pm 22.5 23.2 18.9 80 2.3 ESE 13 20 7 11 1019.4 - 0.0
23/11:24pm 22.5 22.8 18.7 79 2.4 ESE 15 26 8 14 1019.4 - 0.0
23/11:00pm 22.4 23.5 18.9 80 2.2 ESE 11 19 6 10 1019.6 - 0.0
23/10:30pm 22.8 23.4 17.6 72 3.2 SSE 11 17 6 9 1019.8 - 0.0
23/10:00pm 22.7 23.4 17.0 70 3.5 SSE 9 15 5 8 1020.0 - 0.0
23/09:30pm 22.5 22.9 16.4 68 3.7 SE 9 22 5 12 1020.0 - 0.0
23/09:00pm 22.2 22.6 16.2 69 3.6 SE 9 19 5 10 1019.9 1019.9 0.0
23/08:30pm 22.1 22.7 15.9 68 3.7 SE 7 19 4 10 1019.8 - 0.0
23/08:00pm 22.4 22.8 16.3 68 3.7 SE 9 17 5 9 1019.7 - 0.0
23/07:30pm 22.4 22.7 16.1 67 3.8 ESE 9 22 5 12 1019.5 - 0.0
23/07:00pm 22.6 22.1 16.0 66 4.0 ESE 13 20 7 11 1019.3 - 0.0
23/06:30pm 23.1 22.4 15.4 62 4.6 ESE 13 22 7 12 1019.1 - 0.0
23/06:00pm 23.0 21.2 16.0 64 4.2 E 20 30 11 16 1018.9 1018.9 0.0
23/05:30pm 23.2 21.1 15.3 61 4.7 E 20 32 11 17 1018.9 - 0.0
23/05:00pm 23.3 21.2 16.2 64 4.3 E 22 32 12 17 1018.8 - 0.0
23/04:30pm 23.4 21.7 16.3 64 4.3 E 20 32 11 17 1018.7 - 0.0
23/04:00pm 23.4 21.3 16.3 64 4.3 E 22 33 12 18 1018.7 - 0.0
23/03:30pm 23.7 20.8 16.1 62 4.6 E 26 35 14 19 1018.8 - 0.0
23/03:00pm 24.9 22.0 16.0 57 5.4 E 26 37 14 20 1018.9 1018.9 0.0
23/02:30pm 24.6 22.1 16.2 59 5.1 E 24 35 13 19 1019.0 - 0.0
23/02:00pm 25.5 22.4 16.6 58 5.5 E 28 39 15 21 1019.1 - 0.0
23/01:30pm 25.5 22.6 16.0 55 5.8 E 26 39 14 21 1019.4 - 0.0
23/01:00pm 25.2 22.1 15.6 55 5.8 E 26 35 14 19 1019.5 - 0.0
23/12:30pm 25.2 21.7 15.6 55 5.8 E 28 39 15 21 1019.6 - 0.0
23/12:00pm 25.3 22.4 15.1 53 6.1 E 24 37 13 20 1019.9 1019.9 0.0
23/11:30am 24.6 21.3 14.9 54 5.8 E 26 35 14 19 1020.2 - 0.0
23/11:00am 25.0 22.3 14.6 52 6.2 E 22 33 12 18 1020.3 - 0.0
23/10:30am 24.9 21.3 14.2 51 6.3 E 26 39 14 21 1020.4 - 0.0
23/10:00am 24.8 21.9 15.1 54 5.8 E 24 35 13 19 1020.6 - 0.0
23/09:30am 24.0 21.5 15.1 57 5.3 E 22 37 12 20 1020.6 - 0.0
23/09:00am 24.1 20.5 13.2 50 6.3 E 24 33 13 18 1020.4 1020.4 0.0
23/08:30am 24.1 20.0 12.6 48 6.6 E 26 37 14 20 1020.0 - 0.0
23/08:00am 23.9 20.5 13.6 52 6.0 E 24 33 13 18 1019.8 - 0.0
23/07:30am 23.4 20.3 14.6 57 5.2 E 24 37 13 20 1019.8 - 0.0
23/07:00am 22.5 21.6 14.9 62 4.5 ESE 13 28 7 15 1019.4 - 0.0
23/06:30am 22.1 20.6 15.2 65 4.1 E 17 32 9 17 1019.3 - 0.0
23/06:00am 21.8 20.8 14.6 63 4.2 ESE 13 24 7 13 1019.1 1019.1 0.0
23/05:30am 21.5 20.3 14.1 62 4.3 ESE 13 24 7 13 1018.8 - 0.0
23/05:00am 21.4 19.8 14.0 62 4.3 ESE 15 28 8 15 1018.4 - 0.0
23/04:30am 21.5 19.2 13.1 58 4.8 ESE 17 28 9 15 1018.4 - 0.0
23/04:00am 21.6 19.1 13.4 59 4.7 E 19 35 10 19 1018.4 - 0.0
23/03:30am 21.6 19.4 13.4 59 4.7 E 17 28 9 15 1018.4 - 0.0
23/03:00am 21.9 19.6 13.0 57 5.1 E 17 28 9 15 1018.7 1018.7 0.0
23/02:30am 22.2 18.7 13.3 57 5.1 E 24 35 13 19 1018.9 - 0.0
23/02:00am 22.1 18.5 13.2 57 5.1 E 24 35 13 19 1018.8 - 0.0
23/01:30am 22.2 18.7 13.5 57 5.0 E 24 39 13 21 1019.0 - 0.0
23/01:00am 22.2 17.9 13.3 57 5.1 E 28 43 15 23 1019.5 - 0.0
23/12:30am 22.1 20.5 13.8 59 4.8 SSE 15 20 8 11 1019.6 - 0.0
23/12:00am 22.2 17.9 13.3 57 5.1 E 28 43 15 23 1019.7 1019.7 0.0
 
Date/Time
EDT
Temp
°C
App
Temp
°C
Dew
Point
°C
Rel
Hum
%
Delta-T
°C
Wind Press
QNH
hPa
Press
MSL
hPa
Rain since
9am
mm
Dir  Spd
km/h
Gust
km/h
Spd
kts
Gust
kts
22/11:30pm 22.5 18.8 14.9 62 4.5 E 28 41 15 22 1019.9 - 0.0
22/11:00pm 22.5 18.6 14.5 60 4.7 E 28 43 15 23 1020.0 - 0.0
22/10:50pm 22.5 18.2 14.5 60 4.7 E 30 48 16 26 1020.1 - 0.0
22/10:30pm 22.5 19.4 15.5 64 4.2 E 26 39 14 21 1020.1 - 0.0
22/10:00pm 22.6 19.3 14.0 58 5.0 E 24 43 13 23 1020.3 - 0.0
22/09:30pm 22.7 18.7 14.1 58 5.0 E 28 41 15 22 1020.2 - 0.0
22/09:00pm 22.3 19.4 13.0 55 5.3 E 20 26 11 14 1020.0 1020.0 0.0
22/08:40pm 22.6 17.6 12.1 51 5.9 E 30 48 16 26 1019.8 - 0.0
22/08:30pm 22.6 17.7 12.4 52 5.8 E 30 44 16 24 1019.6 - 0.0
22/08:16pm 22.6 17.6 13.4 56 5.3 E 32 50 17 27 1019.5 - 0.0
22/08:00pm 22.7 19.0 14.9 61 4.6 E 28 43 15 23 1019.4 - 0.0
22/07:30pm 22.7 19.0 15.1 62 4.5 E 28 39 15 21 1019.2 - 0.0
22/07:00pm 22.7 20.2 13.5 56 5.3 E 19 30 10 16 1019.0 - 0.0
22/06:30pm 22.8 19.2 13.2 54 5.5 E 24 48 13 26 1018.7 - 0.0
22/06:00pm 22.9 20.1 14.2 58 5.1 ESE 22 41 12 22 1018.5 1018.5 0.0
22/05:30pm 23.0 20.3 14.7 59 4.9 ESE 22 37 12 20 1018.6 - 0.0
22/05:10pm 23.1 19.2 15.4 62 4.6 E 30 48 16 26 1018.4 - 0.0
22/05:00pm 23.2 20.8 15.3 61 4.7 E 22 39 12 21 1018.5 - 0.0
22/04:30pm 24.0 21.3 14.7 56 5.5 E 22 43 12 23 1018.5 - 0.0
22/04:00pm 23.6 22.0 14.0 55 5.6 S 15 26 8 14 1018.6 - 0.0
22/03:30pm 23.5 20.6 15.1 59 5.0 E 24 43 13 23 1018.6 - 0.0
22/03:00pm 23.3 19.1 14.7 58 5.1 E 30 44 16 24 1018.7 1018.7 0.0
22/02:41pm 23.4 19.3 15.0 59 5.0 E 30 50 16 27 1018.7 - 0.0
22/02:30pm 23.7 21.2 15.2 59 5.1 ENE 22 35 12 19 1018.9 - 0.0
22/02:00pm 24.1 20.3 13.6 52 6.1 ESE 26 46 14 25 1019.1 - 0.0
22/01:35pm 25.4 21.0 13.0 46 7.2 E 28 46 15 25 1019.1 - 0.0
22/01:30pm 25.5 21.4 13.8 48 6.9 E 28 44 15 24 1019.1 - 0.0
22/01:00pm 25.6 22.6 14.7 51 6.5 E 24 44 13 24 1019.4 - 0.0
22/12:30pm 25.0 21.2 15.8 56 5.6 E 30 48 16 26 1019.8 - 0.0
22/12:00pm 25.5 21.5 13.1 46 7.2 E 26 50 14 27 1019.8 1019.8 0.0
22/11:30am 25.1 21.4 12.6 45 7.2 E 24 48 13 26 1019.9 - 0.0
22/11:00am 23.5 20.8 14.7 57 5.2 ESE 22 41 12 22 1020.1 - 0.0
22/10:30am 25.0 21.5 15.4 55 5.8 E 28 44 15 24 1019.9 - 0.0
22/10:00am 24.6 21.6 14.7 54 5.9 E 24 44 13 24 1020.2 - 0.0
22/09:49am 24.7 20.8 14.4 52 6.1 E 28 46 15 25 1019.9 - 0.0
22/09:30am 24.5 22.1 13.7 51 6.3 ESE 19 26 10 14 1020.2 - 0.0
22/09:00am 24.1 21.6 14.2 54 5.8 E 20 41 11 22 1020.0 1020.0 0.2
22/08:30am 23.6 20.8 12.6 50 6.3 ESE 19 32 10 17 1020.2 - 0.2
22/08:00am 23.1 19.8 12.8 52 5.9 SSE 22 32 12 17 1019.9 - 0.2
22/07:45am 23.2 18.9 13.3 53 5.7 E 28 46 15 25 1019.5 - 0.2
22/07:30am 23.0 19.6 12.4 51 6.0 SSE 22 35 12 19 1019.7 - 0.2
22/07:00am 22.7 20.5 13.3 55 5.4 ESE 17 33 9 18 1019.3 - 0.2
22/06:30am 22.2 19.4 13.1 56 5.2 E 20 41 11 22 1018.7 - 0.2
22/06:00am 22.0 18.9 12.2 53 5.5 E 20 39 11 21 1018.7 1018.7 0.2
22/05:30am 22.0 19.5 12.2 53 5.5 ESE 17 32 9 17 1018.2 - 0.2
22/05:00am 21.9 19.8 12.3 54 5.4 E 15 26 8 14 1018.5 - 0.2
22/04:54am 21.8 17.4 12.8 56 5.1 E 28 43 15 23 1018.1 - 0.2
22/04:30am 22.0 19.8 12.0 53 5.6 SE 15 22 8 12 1018.2 - 0.2
22/04:00am 22.1 19.1 12.6 55 5.4 NE 20 28 11 15 1017.9 - 0.2
22/03:30am 22.2 19.9 11.8 51 5.8 SSE 15 46 8 25 1017.9 - 0.2
22/03:00am 22.0 20.5 11.8 52 5.7 SE 11 28 6 15 1018.0 1018.0 0.2
22/02:30am 22.0 20.3 12.5 54 5.4 SE 13 19 7 10 1018.1 - 0.2
22/02:00am 22.1 19.8 13.0 56 5.2 ESE 17 33 9 18 1018.3 - 0.2
22/01:30am 22.3 19.2 12.2 52 5.7 ESE 20 33 11 18 1018.6 - 0.2
22/01:00am 22.3 17.9 13.0 55 5.3 E 28 37 15 20 1018.8 - 0.2
22/12:30am 22.5 19.9 13.9 58 5.0 E 20 43 11 23 1019.2 - 0.2
22/12:00am 22.4 19.9 13.4 56 5.2 SE 19 28 10 15 1019.5 1019.5 0.2
 
Date/Time
EDT
Temp
°C
App
Temp
°C
Dew
Point
°C
Rel
Hum
%
Delta-T
°C
Wind Press
QNH
hPa
Press
MSL
hPa
Rain since
9am
mm
Dir  Spd
km/h
Gust
km/h
Spd
kts
Gust
kts
21/11:30pm 22.5 19.4 13.3 56 5.3 E 22 35 12 19 1019.6 - 0.2
21/11:19pm 22.6 18.4 13.4 56 5.3 E 28 48 15 26 1019.5 - 0.2
21/11:00pm 22.5 20.3 13.3 56 5.3 SSE 17 28 9 15 1019.6 - 0.2
21/10:30pm 22.5 20.4 13.5 56 5.2 SSE 17 26 9 14 1020.0 - 0.2
21/10:00pm 22.6 18.8 13.6 56 5.2 E 26 50 14 27 1019.8 - 0.2
21/09:48pm 22.7 18.1 13.5 56 5.3 E 30 48 16 26 1019.8 - 0.2
21/09:30pm 22.7 19.4 13.9 57 5.1 E 24 39 13 21 1019.8 - 0.2
21/09:00pm 22.8 19.9 13.9 57 5.2 E 22 39 12 21 1019.8 1019.8 0.2
21/08:30pm 22.7 19.4 12.7 53 5.7 E 22 39 12 21 1019.4 - 0.2
21/08:00pm 22.8 19.2 13.2 54 5.5 E 24 37 13 20 1018.9 - 0.2
21/07:30pm 22.8 20.8 13.9 57 5.2 SSE 17 28 9 15 1018.7 - 0.2
21/07:00pm 22.8 20.7 14.7 60 4.8 SE 19 28 10 15 1018.1 - 0.2
21/06:30pm 23.1 21.4 14.8 59 4.9 SE 17 32 9 17 1017.8 - 0.2
21/06:00pm 23.9 23.3 15.6 59 5.0 SSE 13 28 7 15 1017.6 1017.6 0.2
21/05:30pm 24.4 23.1 15.8 58 5.2 ESE 17 35 9 19 1017.4 - 0.2
21/05:00pm 24.5 23.5 15.5 57 5.4 SSE 15 24 8 13 1017.4 - 0.2

Other Formats:

Comma delimited format used in spreadsheet applications
http://www.bom.gov.au/fwo/IDN60801/IDN60801.94995.axf

JavaScript Object Notation format (JSON) in row-major order
http://www.bom.gov.au/fwo/IDN60801/IDN60801.94995.json